Time;durP1;ratioP1;P1;durP2;ratioP2;P2;SDS_P1;SDS_P2;PMS_P1;PMS_P2;Temp;Humidity;BMP_temperature;BMP_pressure;BME280_temperature;BME280_humidity;BME280_pressure;Samples;Min_cycle;Max_cycle;Signal;HPM_P1;HPM_P2
2023/05/08 00:01:51;;;;;;;17.60;15.35;;;14.20;99.90;;;;;;5094903;28;20469;-62
2023/05/08 00:04:19;;;;;;;16.15;14.45;;;14.10;99.90;;;;;;5077467;28;20378;-61
2023/05/08 00:06:46;;;;;;;18.13;16.17;;;14.10;99.90;;;;;;5095309;28;20052;-60
2023/05/08 00:09:12;;;;;;;16.77;14.80;;;14.10;99.90;;;;;;5094883;28;20105;-62
2023/05/08 00:11:38;;;;;;;16.98;14.95;;;14.10;99.90;;;;;;5094590;28;20048;-61
2023/05/08 00:14:05;;;;;;;17.50;15.70;;;14.10;99.90;;;;;;5095037;28;20393;-61
2023/05/08 00:16:31;;;;;;;16.33;14.60;;;14.00;99.90;;;;;;5094947;28;20062;-61
2023/05/08 00:18:58;;;;;;;16.67;14.25;;;14.00;99.90;;;;;;5077392;28;20059;-60
2023/05/08 00:21:25;;;;;;;17.83;15.95;;;14.00;99.90;;;;;;5093838;28;20394;-62
2023/05/08 00:23:51;;;;;;;17.80;15.73;;;14.00;99.90;;;;;;5094738;28;20048;-61
2023/05/08 00:26:17;;;;;;;17.73;15.45;;;13.90;99.90;;;;;;5094680;28;20074;-61
2023/05/08 00:28:44;;;;;;;20.00;15.32;;;13.80;99.90;;;;;;5094579;28;20052;-61
2023/05/08 00:31:10;;;;;;;19.08;16.95;;;13.90;99.90;;;;;;5094441;28;20400;-60
2023/05/08 00:33:37;;;;;;;18.85;15.55;;;13.80;99.90;;;;;;5094627;28;20048;-61
2023/05/08 00:36:04;;;;;;;17.48;15.35;;;13.70;99.90;;;;;;5094451;28;20052;-60
2023/05/08 00:38:35;;;;;;;19.05;14.68;;;13.80;99.90;;;;;;5094391;28;20056;-61
2023/05/08 00:41:02;;;;;;;19.15;15.57;;;13.70;99.90;;;;;;5073982;28;20198;-61
2023/05/08 00:43:28;;;;;;;19.73;15.63;;;13.60;99.90;;;;;;5074415;28;20044;-61
2023/05/08 00:45:56;;;;;;;17.83;15.93;;;13.60;99.90;;;;;;5074081;28;20353;-60
2023/05/08 00:48:23;;;;;;;19.30;16.45;;;13.70;99.90;;;;;;5074279;28;20044;-61
2023/05/08 00:50:51;;;;;;;17.05;15.25;;;13.50;99.90;;;;;;5093468;28;20074;-61
2023/05/08 00:53:20;;;;;;;18.40;16.30;;;13.60;99.90;;;;;;5094003;28;20461;-60
2023/05/08 00:55:47;;;;;;;19.60;16.35;;;13.50;99.90;;;;;;5094302;28;20048;-62
2023/05/08 00:58:14;;;;;;;17.42;15.52;;;13.50;99.90;;;;;;5094019;28;20468;-61
2023/05/08 01:00:42;;;;;;;21.55;15.82;;;13.50;99.90;;;;;;5093460;28;20138;-62
2023/05/08 01:03:09;;;;;;;18.02;15.50;;;13.60;99.90;;;;;;5094356;28;20055;-62
2023/05/08 01:05:36;;;;;;;17.10;15.02;;;13.50;99.90;;;;;;5094023;28;20043;-63
2023/05/08 01:08:02;;;;;;;18.23;15.75;;;13.40;99.90;;;;;;5094053;28;20102;-62
2023/05/08 01:10:47;;;;;;;18.70;14.82;;;13.40;99.90;;;;;;5093498;28;20055;-60
2023/05/08 01:13:50;;;;;;;17.45;15.32;;;13.40;99.90;;;;;;5094015;28;20044;-62
2023/05/08 01:16:24;;;;;;;18.00;15.73;;;13.30;99.90;;;;;;5093485;28;20472;-62
2023/05/08 01:19:04;;;;;;;19.15;15.18;;;13.30;99.90;;;;;;5075594;28;20063;-61
2023/05/08 01:21:43;;;;;;;18.33;16.10;;;13.30;99.90;;;;;;5092950;28;20460;-62
2023/05/08 01:24:10;;;;;;;19.30;14.82;;;13.20;99.90;;;;;;5093909;28;20059;-60
2023/05/08 01:27:05;;;;;;;19.15;16.10;;;13.10;99.90;;;;;;5093318;28;20052;-61
2023/05/08 01:29:34;;;;;;;19.20;15.63;;;13.10;99.90;;;;;;5093328;28;20078;-62
2023/05/08 01:32:21;;;;;;;22.92;17.10;;;13.00;99.90;;;;;;5093124;28;20047;-61
2023/05/08 01:35:06;;;;;;;19.50;15.30;;;13.00;99.90;;;;;;5093026;28;20077;-61
2023/05/08 01:38:09;;;;;;;19.88;16.23;;;12.90;99.90;;;;;;5093845;28;20117;-62
2023/05/08 01:40:58;;;;;;;21.20;17.17;;;12.80;99.90;;;;;;5092830;28;20048;-60
2023/05/08 01:43:32;;;;;;;19.90;16.30;;;12.80;99.90;;;;;;5093536;28;20055;-61
2023/05/08 01:46:04;;;;;;;21.38;17.05;;;12.70;99.90;;;;;;5093516;28;20048;-60
2023/05/08 01:48:34;;;;;;;23.15;15.90;;;12.70;99.90;;;;;;5093671;28;20048;-62
2023/05/08 01:51:12;;;;;;;21.50;16.27;;;12.70;99.90;;;;;;5092763;28;20101;-62
2023/05/08 01:53:42;;;;;;;19.35;16.42;;;12.70;99.90;;;;;;5093453;28;20341;-61
2023/05/08 01:56:16;;;;;;;22.00;18.65;;;12.60;99.90;;;;;;5093436;28;20052;-61
2023/05/08 01:58:43;;;;;;;20.15;17.95;;;12.60;99.90;;;;;;5092569;28;20376;-61
2023/05/08 02:01:12;;;;;;;21.10;16.25;;;12.60;99.90;;;;;;5092626;28;20470;-61
2023/05/08 02:03:41;;;;;;;20.25;16.50;;;12.50;99.90;;;;;;5093244;28;20048;-61
2023/05/08 02:06:11;;;;;;;19.70;16.60;;;12.50;99.90;;;;;;5092804;28;20058;-61
2023/05/08 02:08:38;;;;;;;20.25;15.98;;;12.50;99.90;;;;;;5092811;28;20372;-62
2023/05/08 02:11:06;;;;;;;20.75;16.38;;;12.50;99.90;;;;;;5092518;28;20048;-61
2023/05/08 02:13:35;;;;;;;21.15;16.80;;;12.40;99.90;;;;;;5092949;28;20432;-62
2023/05/08 02:16:02;;;;;;;19.08;15.95;;;12.40;99.90;;;;;;5092888;28;20513;-61
2023/05/08 02:18:31;;;;;;;19.45;15.85;;;12.40;99.90;;;;;;5092967;28;20117;-62
2023/05/08 02:20:59;;;;;;;20.92;15.65;;;12.40;99.90;;;;;;5092073;28;20058;-62
2023/05/08 02:23:27;;;;;;;20.67;17.40;;;12.40;99.90;;;;;;5092864;28;20114;-60
2023/05/08 02:25:54;;;;;;;19.73;16.48;;;12.40;99.90;;;;;;5092302;28;20357;-62
2023/05/08 02:28:22;;;;;;;20.05;16.45;;;12.40;99.90;;;;;;5092469;28;20056;-61
2023/05/08 02:30:50;;;;;;;21.00;17.00;;;12.40;99.90;;;;;;5091988;28;20048;-60
2023/05/08 02:33:17;;;;;;;19.88;15.80;;;12.30;99.90;;;;;;5092492;28;20044;-59
2023/05/08 02:35:46;;;;;;;20.02;17.35;;;12.30;99.90;;;;;;5092279;28;20048;-62
2023/05/08 02:38:14;;;;;;;19.35;15.45;;;12.30;99.90;;;;;;5092678;28;20044;-61
2023/05/08 02:40:47;;;;;;;21.02;16.67;;;12.30;99.90;;;;;;5091706;28;20491;-61
2023/05/08 02:43:13;;;;;;;19.33;15.70;;;12.20;99.90;;;;;;5092553;28;20074;-62
2023/05/08 02:45:47;;;;;;;20.42;17.65;;;12.20;99.90;;;;;;5094028;28;20387;-61
2023/05/08 02:48:22;;;;;;;19.85;15.73;;;12.20;99.90;;;;;;5096555;28;20047;-62
2023/05/08 02:51:18;;;;;;;19.42;15.82;;;12.20;99.90;;;;;;5095871;28;20387;-60
2023/05/08 02:53:51;;;;;;;20.33;16.35;;;12.20;99.90;;;;;;5092278;28;20044;-62
2023/05/08 02:56:28;;;;;;;22.45;16.48;;;12.20;99.90;;;;;;5078392;28;20053;-62
2023/05/08 02:59:22;;;;;;;19.63;15.43;;;12.20;99.90;;;;;;5096368;28;20048;-62
2023/05/08 03:01:57;;;;;;;21.10;16.80;;;12.20;99.90;;;;;;5082320;28;20048;-61
2023/05/08 03:04:31;;;;;;;19.75;15.63;;;12.20;99.90;;;;;;5096423;28;20066;-62
2023/05/08 03:06:58;;;;;;;22.27;17.27;;;12.20;99.90;;;;;;5096536;28;20070;-61
2023/05/08 03:09:30;;;;;;;20.50;17.45;;;12.20;99.90;;;;;;5095770;28;20307;-61
2023/05/08 03:12:16;;;;;;;18.83;15.52;;;12.20;99.90;;;;;;5096036;28;20048;-61
2023/05/08 03:14:51;;;;;;;18.25;15.38;;;12.10;99.90;;;;;;5096481;28;20040;-62
2023/05/08 03:17:19;;;;;;;20.48;15.88;;;12.10;99.90;;;;;;5096123;28;20113;-62
2023/05/08 03:19:48;;;;;;;18.88;15.52;;;12.00;99.90;;;;;;5077862;28;20422;-62
2023/05/08 03:22:17;;;;;;;20.75;16.60;;;12.00;99.90;;;;;;5095695;28;20048;-62
2023/05/08 03:24:46;;;;;;;18.90;15.60;;;12.00;99.90;;;;;;5096262;28;20048;-61
2023/05/08 03:27:13;;;;;;;19.45;15.52;;;11.90;99.90;;;;;;5104837;28;20475;-61
2023/05/08 03:29:40;;;;;;;20.08;16.98;;;11.90;99.90;;;;;;5115923;28;20382;-60
2023/05/08 03:32:08;;;;;;;19.75;16.38;;;11.90;99.90;;;;;;5115960;28;20051;-62
2023/05/08 03:34:35;;;;;;;18.30;15.52;;;11.80;99.90;;;;;;5097991;28;20490;-62
2023/05/08 03:37:01;;;;;;;20.98;15.73;;;11.80;99.90;;;;;;5116164;28;20059;-61
2023/05/08 03:39:27;;;;;;;18.27;15.35;;;11.80;99.90;;;;;;5115704;28;20455;-62
2023/05/08 03:41:55;;;;;;;19.63;15.55;;;11.70;99.90;;;;;;5115794;28;20059;-61
2023/05/08 03:44:22;;;;;;;20.85;16.02;;;11.70;99.90;;;;;;5116068;28;20059;-60
2023/05/08 03:46:51;;;;;;;20.40;16.08;;;11.60;99.90;;;;;;5115956;28;20043;-61
2023/05/08 03:49:18;;;;;;;20.70;16.05;;;11.60;99.90;;;;;;5097492;28;20444;-61
2023/05/08 03:51:45;;;;;;;18.45;14.68;;;11.60;99.90;;;;;;5115327;28;20051;-60
2023/05/08 03:54:12;;;;;;;19.33;15.68;;;11.70;99.90;;;;;;5116021;28;20043;-62
2023/05/08 03:56:38;;;;;;;19.52;15.95;;;11.60;99.90;;;;;;5115037;28;20051;-61
2023/05/08 03:59:18;;;;;;;18.45;15.35;;;11.60;99.90;;;;;;5115617;28;20058;-62
2023/05/08 04:02:08;;;;;;;20.55;15.82;;;11.60;99.90;;;;;;5115094;28;20112;-62
2023/05/08 04:04:44;;;;;;;19.23;16.33;;;11.50;99.90;;;;;;5112712;28;20058;-63
2023/05/08 04:07:25;;;;;;;21.77;16.25;;;11.50;99.90;;;;;;5112412;27;20039;-62
2023/05/08 04:10:09;;;;;;;18.52;15.65;;;11.40;99.90;;;;;;5122027;27;20051;-60
2023/05/08 04:13:03;;;;;;;20.10;15.38;;;11.50;99.90;;;;;;5107971;27;20095;-61
2023/05/08 04:15:32;;;;;;;19.40;16.00;;;11.40;99.90;;;;;;5105188;27;20040;-62
2023/05/08 04:18:06;;;;;;;17.83;15.32;;;11.50;99.90;;;;;;5086927;28;20047;-61
2023/05/08 04:20:40;;;;;;;20.73;15.13;;;11.40;99.90;;;;;;5105228;27;20047;-61
2023/05/08 04:23:08;;;;;;;22.35;16.52;;;11.40;99.90;;;;;;5125850;27;20096;-61
2023/05/08 04:25:36;;;;;;;19.05;16.13;;;11.40;99.90;;;;;;5106005;27;20530;-61
2023/05/08 04:28:03;;;;;;;21.98;16.75;;;11.40;99.90;;;;;;5122526;27;20113;-62
2023/05/08 04:30:29;;;;;;;19.13;15.10;;;11.40;99.90;;;;;;5114504;28;20048;-63
2023/05/08 04:32:58;;;;;;;19.05;15.82;;;11.50;99.90;;;;;;5114888;28;20502;-62
2023/05/08 04:35:24;;;;;;;20.27;16.75;;;11.50;99.90;;;;;;5097214;28;20418;-61
2023/05/08 04:37:51;;;;;;;18.17;16.15;;;11.60;99.90;;;;;;5115068;28;20043;-61
2023/05/08 04:40:17;;;;;;;18.50;15.80;;;11.80;99.90;;;;;;5114233;28;20052;-62
2023/05/08 04:42:46;;;;;;;19.25;16.42;;;12.20;99.90;;;;;;5115066;28;20052;-61
2023/05/08 04:45:12;;;;;;;19.48;16.65;;;12.40;99.90;;;;;;5097020;28;20044;-60
2023/05/08 04:47:39;;;;;;;17.17;14.48;;;12.30;99.90;;;;;;5114733;28;20040;-63
2023/05/08 04:50:05;;;;;;;17.80;13.95;;;12.30;99.90;;;;;;5113609;28;20058;-62
2023/05/08 04:52:31;;;;;;;17.67;15.07;;;12.10;99.90;;;;;;5114762;28;20055;-61
2023/05/08 04:54:58;;;;;;;18.00;14.77;;;12.00;99.90;;;;;;5114848;28;20104;-60
2023/05/08 04:57:24;;;;;;;16.88;15.00;;;12.10;99.90;;;;;;5119337;27;20107;-61
2023/05/08 04:59:51;;;;;;;18.92;14.73;;;12.40;99.90;;;;;;5104748;27;20380;-62
2023/05/08 05:02:17;;;;;;;18.40;14.93;;;12.90;99.90;;;;;;5123333;27;20366;-61
2023/05/08 05:04:43;;;;;;;18.30;14.48;;;13.40;99.90;;;;;;5097568;28;20664;-60
2023/05/08 05:07:09;;;;;;;18.20;14.55;;;13.90;99.90;;;;;;5111348;28;20509;-61
2023/05/08 05:09:37;;;;;;;17.40;13.52;;;14.30;99.90;;;;;;5113153;28;20040;-61
2023/05/08 05:12:05;;;;;;;16.85;14.32;;;14.60;99.90;;;;;;5095332;28;20388;-63
2023/05/08 05:14:31;;;;;;;16.15;14.45;;;15.10;99.90;;;;;;5113727;28;20048;-61
2023/05/08 05:16:58;;;;;;;15.85;13.95;;;15.50;99.90;;;;;;5114209;28;20047;-62
2023/05/08 05:19:24;;;;;;;15.40;13.32;;;15.50;99.90;;;;;;5113992;28;20043;-62
2023/05/08 05:21:50;;;;;;;17.13;14.93;;;15.80;99.90;;;;;;5113740;28;20063;-61
2023/05/08 05:24:16;;;;;;;15.77;14.20;;;15.60;99.90;;;;;;5114149;28;20405;-62
2023/05/08 05:26:43;;;;;;;15.80;14.15;;;15.70;99.90;;;;;;5113731;28;20181;-62
2023/05/08 05:29:09;;;;;;;15.65;13.23;;;15.60;99.90;;;;;;5114276;28;20047;-61
2023/05/08 05:31:36;;;;;;;15.02;13.48;;;15.60;99.90;;;;;;5113527;28;20055;-63
2023/05/08 05:34:02;;;;;;;15.40;12.60;;;16.00;99.90;;;;;;5113731;28;20402;-60
2023/05/08 05:36:28;;;;;;;14.73;13.23;;;16.30;99.90;;;;;;5095848;28;20066;-61
2023/05/08 05:38:54;;;;;;;14.98;13.43;;;16.50;99.90;;;;;;5113775;28;20051;-62
2023/05/08 05:41:21;;;;;;;14.65;13.13;;;16.40;99.90;;;;;;5095350;28;20047;-61
2023/05/08 05:43:47;;;;;;;14.10;12.60;;;16.60;99.90;;;;;;5113565;28;20421;-63
2023/05/08 05:46:13;;;;;;;14.43;12.93;;;16.60;99.90;;;;;;5113752;28;20047;-61
2023/05/08 05:48:40;;;;;;;15.20;13.70;;;16.40;99.90;;;;;;5113668;28;20081;-61
2023/05/08 05:51:06;;;;;;;14.48;12.98;;;15.80;99.90;;;;;;5112975;28;20047;-61
2023/05/08 05:53:32;;;;;;;14.02;12.52;;;15.10;99.90;;;;;;5095339;28;20063;-61
2023/05/08 05:55:58;;;;;;;15.23;13.63;;;14.90;99.90;;;;;;5113464;28;20044;-62
2023/05/08 05:58:25;;;;;;;16.15;13.77;;;14.70;99.90;;;;;;5113750;28;20101;-62
2023/05/08 06:00:51;;;;;;;14.27;12.77;;;14.60;99.90;;;;;;5112757;28;20052;-61
2023/05/08 06:03:17;;;;;;;13.43;12.02;;;14.90;99.90;;;;;;5113433;28;20052;-63
2023/05/08 06:05:45;;;;;;;13.52;12.13;;;15.30;99.90;;;;;;5112770;28;20525;-61
2023/05/08 06:08:15;;;;;;;15.77;12.75;;;15.80;99.90;;;;;;5095663;28;20079;-61
2023/05/08 06:10:41;;;;;;;13.77;12.38;;;16.50;99.90;;;;;;5094825;28;20043;-61
2023/05/08 06:13:08;;;;;;;16.67;13.25;;;16.90;99.90;;;;;;5113238;28;20043;-62
2023/05/08 06:15:34;;;;;;;14.90;13.13;;;17.40;99.90;;;;;;5113193;28;20043;-62
2023/05/08 06:18:01;;;;;;;16.13;12.77;;;17.90;99.90;;;;;;5113231;28;20054;-62
2023/05/08 06:20:27;;;;;;;12.82;11.52;;;18.30;99.90;;;;;;5111954;28;20056;-62
2023/05/08 06:22:53;;;;;;;13.95;12.55;;;18.40;99.90;;;;;;5113281;28;20047;-62
2023/05/08 06:25:19;;;;;;;14.20;12.80;;;18.60;99.90;;;;;;5113116;28;20066;-61
2023/05/08 06:27:45;;;;;;;13.23;11.20;;;18.30;99.90;;;;;;5112592;28;20043;-62
2023/05/08 06:30:12;;;;;;;13.13;11.35;;;18.70;99.90;;;;;;5112456;28;20077;-62
2023/05/08 06:32:38;;;;;;;13.40;12.20;;;18.80;99.90;;;;;;5113020;28;20370;-62
2023/05/08 06:35:05;;;;;;;13.40;12.05;;;19.10;99.90;;;;;;5112845;28;20103;-61
2023/05/08 06:37:31;;;;;;;13.38;12.02;;;18.80;99.90;;;;;;5112626;28;20387;-62
2023/05/08 06:39:57;;;;;;;12.60;11.32;;;19.00;99.90;;;;;;5112470;28;20059;-63
2023/05/08 06:42:24;;;;;;;13.55;12.15;;;19.20;99.90;;;;;;5113056;28;20051;-61
2023/05/08 06:44:52;;;;;;;13.30;12.00;;;19.20;99.90;;;;;;5112944;28;20463;-61
2023/05/08 06:47:19;;;;;;;14.35;12.85;;;19.30;99.90;;;;;;5112877;28;20043;-63
2023/05/08 06:49:45;;;;;;;13.50;12.10;;;19.40;99.90;;;;;;5111957;28;20039;-62
2023/05/08 06:52:11;;;;;;;14.43;12.50;;;18.90;99.90;;;;;;5112895;28;20058;-61
2023/05/08 06:54:38;;;;;;;14.15;12.85;;;18.60;99.90;;;;;;5112540;28;20406;-62
2023/05/08 06:57:05;;;;;;;14.18;12.65;;;18.60;99.90;;;;;;5112642;28;20048;-63
2023/05/08 06:59:31;;;;;;;13.95;12.55;;;18.10;99.90;;;;;;5112383;28;20055;-64
2023/05/08 07:01:58;;;;;;;15.73;12.88;;;18.00;99.90;;;;;;5113073;28;20071;-61
2023/05/08 07:04:24;;;;;;;13.95;12.55;;;17.90;99.90;;;;;;5112713;28;20381;-61
2023/05/08 07:06:50;;;;;;;14.30;12.85;;;17.70;99.90;;;;;;5112749;28;20055;-61
2023/05/08 07:09:16;;;;;;;13.98;12.57;;;17.40;99.90;;;;;;5112407;28;20035;-64
2023/05/08 07:11:43;;;;;;;14.63;12.68;;;17.30;99.90;;;;;;5111954;28;20421;-61
2023/05/08 07:14:09;;;;;;;15.63;14.18;;;17.20;99.90;;;;;;5112816;28;20339;-61
2023/05/08 07:16:36;;;;;;;14.40;12.57;;;17.20;99.90;;;;;;5112371;28;20491;-61
2023/05/08 07:19:02;;;;;;;15.57;13.68;;;17.30;99.90;;;;;;5112488;28;20055;-62
2023/05/08 07:21:29;;;;;;;15.13;13.73;;;17.40;99.90;;;;;;5112167;28;20455;-63
2023/05/08 07:23:55;;;;;;;15.57;13.30;;;17.30;99.90;;;;;;5112680;28;20163;-61
2023/05/08 07:26:23;;;;;;;14.57;12.70;;;17.30;99.90;;;;;;5112276;28;20040;-61
2023/05/08 07:28:49;;;;;;;14.07;12.63;;;17.30;99.90;;;;;;5094210;28;20120;-62
2023/05/08 07:31:16;;;;;;;14.27;12.88;;;17.40;99.90;;;;;;5111892;28;20641;-63
2023/05/08 07:33:42;;;;;;;15.13;12.00;;;17.50;99.90;;;;;;5115912;28;20055;-62
2023/05/08 07:36:08;;;;;;;14.23;12.45;;;17.60;99.90;;;;;;5116124;28;20067;-62
2023/05/08 07:38:35;;;;;;;13.77;12.32;;;17.80;99.90;;;;;;5116041;28;20472;-61
2023/05/08 07:41:01;;;;;;;14.13;12.73;;;17.70;99.90;;;;;;5115452;28;20051;-61
2023/05/08 07:43:28;;;;;;;14.50;13.13;;;17.70;99.90;;;;;;5098107;28;20062;-63
2023/05/08 07:45:54;;;;;;;14.68;13.13;;;17.70;99.90;;;;;;5116255;28;20104;-62
2023/05/08 07:48:20;;;;;;;14.85;13.30;;;17.70;99.90;;;;;;5115992;28;20059;-62
2023/05/08 07:50:49;;;;;;;14.48;13.07;;;17.60;99.90;;;;;;5115257;28;20048;-62
2023/05/08 07:53:15;;;;;;;15.05;13.55;;;17.80;99.90;;;;;;5098177;28;20062;-63
2023/05/08 07:55:41;;;;;;;15.77;14.10;;;17.90;99.90;;;;;;5097896;28;20444;-62
2023/05/08 07:58:08;;;;;;;14.57;13.18;;;18.00;99.90;;;;;;5115645;28;20380;-62
2023/05/08 08:00:38;;;;;;;13.48;12.18;;;18.10;99.90;;;;;;5097331;28;20059;-61
2023/05/08 08:03:04;;;;;;;14.27;12.77;;;18.10;99.90;;;;;;5115969;28;20056;-61
2023/05/08 08:05:30;;;;;;;14.40;12.90;;;18.20;99.90;;;;;;5115612;28;20104;-62
2023/05/08 08:07:57;;;;;;;14.15;12.75;;;18.20;99.90;;;;;;5097417;28;20052;-63
2023/05/08 08:10:23;;;;;;;15.30;13.68;;;18.30;99.90;;;;;;5097183;28;20047;-61
2023/05/08 08:12:49;;;;;;;15.68;13.98;;;18.20;99.90;;;;;;5097559;28;20561;-62
2023/05/08 08:15:16;;;;;;;15.38;13.77;;;18.20;99.90;;;;;;5097686;28;20052;-61
2023/05/08 08:17:42;;;;;;;15.45;13.93;;;18.30;99.90;;;;;;5115438;28;20055;-62
2023/05/08 08:20:08;;;;;;;14.20;12.80;;;18.20;99.90;;;;;;5114596;28;20048;-62
2023/05/08 08:22:36;;;;;;;14.73;13.23;;;18.20;99.90;;;;;;5115727;28;20055;-61
2023/05/08 08:25:03;;;;;;;15.82;14.23;;;18.20;99.90;;;;;;5115379;28;20051;-63
2023/05/08 08:27:29;;;;;;;15.77;14.13;;;18.20;99.90;;;;;;5114862;28;20054;-63
2023/05/08 08:29:55;;;;;;;15.40;13.80;;;18.30;99.90;;;;;;5114846;28;20043;-61
2023/05/08 08:32:21;;;;;;;16.10;14.40;;;18.20;99.90;;;;;;5115065;28;20047;-62
2023/05/08 08:34:48;;;;;;;16.40;14.65;;;18.10;99.90;;;;;;5115292;28;20039;-61
2023/05/08 08:37:14;;;;;;;16.30;14.65;;;18.20;99.90;;;;;;5115125;28;20058;-61
2023/05/08 08:39:40;;;;;;;15.93;14.18;;;18.40;99.90;;;;;;5114357;28;20063;-63
2023/05/08 08:42:06;;;;;;;15.15;13.55;;;18.40;99.90;;;;;;5114961;28;20051;-62
2023/05/08 08:44:33;;;;;;;17.23;15.23;;;18.60;99.90;;;;;;5114309;28;20471;-62
2023/05/08 08:47:01;;;;;;;16.45;14.77;;;18.60;99.90;;;;;;5097016;28;20063;-63
2023/05/08 08:49:30;;;;;;;16.75;15.02;;;18.70;99.90;;;;;;5114437;28;20039;-63
2023/05/08 08:52:25;;;;;;;15.98;14.00;;;19.00;99.90;;;;;;5115039;28;20051;-61
2023/05/08 08:54:54;;;;;;;17.67;14.90;;;19.30;99.90;;;;;;5114891;28;20058;-63
2023/05/08 08:57:21;;;;;;;17.80;14.90;;;19.40;99.90;;;;;;5114762;28;20055;-62
2023/05/08 08:59:48;;;;;;;16.77;15.07;;;19.50;99.90;;;;;;5114006;28;20059;-61
2023/05/08 09:02:18;;;;;;;16.80;14.35;;;19.40;99.90;;;;;;5114651;28;20047;-63
2023/05/08 09:04:44;;;;;;;15.43;13.82;;;19.50;99.90;;;;;;5114509;28;20385;-63
2023/05/08 09:07:11;;;;;;;17.17;15.38;;;19.60;99.90;;;;;;5114217;28;20414;-64
2023/05/08 09:09:43;;;;;;;15.68;14.00;;;19.80;99.90;;;;;;5114210;28;20047;-60
2023/05/08 09:12:10;;;;;;;16.08;14.20;;;19.70;99.90;;;;;;5114613;28;20043;-62
2023/05/08 09:14:37;;;;;;;18.35;14.05;;;19.90;99.90;;;;;;5114457;28;20039;-62
2023/05/08 09:17:03;;;;;;;16.52;14.82;;;19.70;99.90;;;;;;5114542;28;20055;-61
2023/05/08 09:19:30;;;;;;;16.10;14.23;;;19.60;99.90;;;;;;5113401;28;20047;-64
2023/05/08 09:22:00;;;;;;;18.33;16.42;;;19.70;99.90;;;;;;5114698;28;20124;-63
2023/05/08 09:24:59;;;;;;;16.23;14.52;;;19.60;99.90;;;;;;5114630;28;20051;-62
2023/05/08 09:27:27;;;;;;;15.55;14.00;;;19.80;99.90;;;;;;5103072;28;20056;-63
2023/05/08 09:30:08;;;;;;;16.80;15.05;;;19.80;99.90;;;;;;5075255;28;20426;-63
2023/05/08 09:32:37;;;;;;;16.63;14.93;;;20.10;99.90;;;;;;5093779;28;20048;-62
2023/05/08 09:35:05;;;;;;;17.55;15.73;;;20.30;99.90;;;;;;5093365;28;20365;-63
2023/05/08 09:37:31;;;;;;;17.48;15.70;;;20.50;99.90;;;;;;5093651;28;20052;-63
2023/05/08 09:40:19;;;;;;;16.90;15.10;;;20.60;99.90;;;;;;5093155;28;20124;-62
2023/05/08 09:42:47;;;;;;;16.65;14.95;;;20.90;99.90;;;;;;5093379;28;20479;-62
2023/05/08 09:45:26;;;;;;;16.52;14.85;;;21.00;99.90;;;;;;5093627;28;20058;-62
2023/05/08 09:47:53;;;;;;;16.70;15.00;;;21.20;99.90;;;;;;5093502;28;20441;-62
2023/05/08 09:50:19;;;;;;;17.70;15.90;;;21.40;99.90;;;;;;5092907;28;20052;-62
2023/05/08 09:52:47;;;;;;;18.02;15.30;;;21.60;99.90;;;;;;5093362;28;20059;-64
2023/05/08 09:55:14;;;;;;;18.80;16.95;;;21.70;99.90;;;;;;5092892;28;20044;-63
2023/05/08 09:57:52;;;;;;;19.13;16.50;;;21.80;99.90;;;;;;5093225;28;20192;-63
2023/05/08 10:00:19;;;;;;;17.60;15.90;;;21.60;99.90;;;;;;5092298;28;20376;-62
2023/05/08 10:02:58;;;;;;;17.45;14.15;;;21.60;99.90;;;;;;5093187;28;20048;-62
2023/05/08 10:05:26;;;;;;;14.93;13.43;;;21.70;99.90;;;;;;5092653;28;20381;-63
2023/05/08 10:07:53;;;;;;;17.48;15.77;;;21.90;99.90;;;;;;5092961;28;20374;-63
2023/05/08 10:10:26;;;;;;;17.05;15.30;;;22.00;99.90;;;;;;5092497;28;20048;-62
2023/05/08 10:12:54;;;;;;;16.15;14.55;;;22.10;99.90;;;;;;5092980;28;20040;-63
2023/05/08 10:15:27;;;;;;;20.23;16.35;;;22.20;99.90;;;;;;5092878;28;20047;-62
2023/05/08 10:18:01;;;;;;;19.20;17.38;;;22.10;99.90;;;;;;5092649;28;20491;-63
2023/05/08 10:20:30;;;;;;;17.35;15.55;;;22.00;99.90;;;;;;5091891;28;20487;-62
2023/05/08 10:22:57;;;;;;;18.00;16.10;;;22.20;99.90;;;;;;5075146;28;20089;-62
2023/05/08 10:25:24;;;;;;;18.55;16.65;;;22.20;99.90;;;;;;5093252;28;20048;-64
2023/05/08 10:28:05;;;;;;;18.65;16.75;;;22.30;99.90;;;;;;5092424;28;20056;-62
2023/05/08 10:30:36;;;;;;;17.98;16.23;;;22.30;99.90;;;;;;5091769;28;20435;-62
2023/05/08 10:33:08;;;;;;;17.77;15.98;;;22.00;99.90;;;;;;5092476;28;20652;-63
2023/05/08 10:35:36;;;;;;;17.17;15.35;;;21.90;99.90;;;;;;5092561;28;20047;-64
2023/05/08 10:38:03;;;;;;;19.38;17.38;;;22.20;99.90;;;;;;5092625;28;20079;-61
2023/05/08 10:40:30;;;;;;;18.25;16.45;;;22.30;99.90;;;;;;5091782;28;20051;-63
2023/05/08 10:42:57;;;;;;;18.05;16.17;;;22.40;99.90;;;;;;5092646;28;20040;-64
2023/05/08 10:45:23;;;;;;;18.95;16.02;;;22.60;99.90;;;;;;5092538;28;20048;-63
2023/05/08 10:48:14;;;;;;;18.75;16.75;;;22.80;99.90;;;;;;5092472;28;20067;-62
2023/05/08 10:50:49;;;;;;;18.77;16.75;;;22.90;99.90;;;;;;5091860;28;20036;-63
2023/05/08 10:53:52;;;;;;;18.92;17.02;;;23.00;99.90;;;;;;5074754;28;20109;-63
2023/05/08 10:56:26;;;;;;;18.27;16.48;;;23.20;99.90;;;;;;5092630;28;20117;-63
2023/05/08 10:58:56;;;;;;;18.35;16.30;;;23.10;99.90;;;;;;5092694;28;20062;-64
2023/05/08 11:01:23;;;;;;;18.05;16.27;;;23.10;99.90;;;;;;5091825;28;20067;-61
2023/05/08 11:03:50;;;;;;;17.90;16.10;;;23.30;99.90;;;;;;5092392;28;20064;-63
2023/05/08 11:06:17;;;;;;;17.25;15.15;;;23.30;99.90;;;;;;5093901;28;20044;-62
2023/05/08 11:08:51;;;;;;;20.45;18.48;;;23.30;99.90;;;;;;5096072;28;20538;-63
2023/05/08 11:11:30;;;;;;;20.58;18.45;;;23.20;99.90;;;;;;5095559;28;20422;-63
2023/05/08 11:14:06;;;;;;;19.00;17.13;;;23.10;99.90;;;;;;5096357;28;20518;-61
2023/05/08 11:16:55;;;;;;;18.95;17.00;;;23.20;99.90;;;;;;5096287;28;20135;-62
2023/05/08 11:19:23;;;;;;;20.73;18.45;;;23.30;99.90;;;;;;5082336;28;20376;-62
2023/05/08 11:22:23;;;;;;;20.02;17.88;;;23.40;99.90;;;;;;5096276;28;20052;-61
2023/05/08 11:24:53;;;;;;;20.20;18.20;;;23.40;99.90;;;;;;5077473;28;20056;-62
2023/05/08 11:27:37;;;;;;;20.27;18.05;;;23.50;99.90;;;;;;5095807;28;20109;-62
2023/05/08 11:30:23;;;;;;;20.48;17.80;;;23.60;99.90;;;;;;5095102;28;20581;-61
2023/05/08 11:33:17;;;;;;;19.83;17.83;;;23.70;99.90;;;;;;5078188;28;20052;-63
2023/05/08 11:35:51;;;;;;;20.42;17.58;;;23.70;99.90;;;;;;5095338;28;20127;-63
2023/05/08 11:38:22;;;;;;;18.95;16.95;;;23.70;99.90;;;;;;5095777;28;20075;-62
2023/05/08 11:41:03;;;;;;;19.88;17.88;;;23.80;99.90;;;;;;5094823;28;20418;-63
2023/05/08 11:43:32;;;;;;;20.73;17.25;;;23.70;99.90;;;;;;5095840;28;20079;-64
2023/05/08 11:46:04;;;;;;;22.67;20.35;;;23.60;99.90;;;;;;5095948;28;20538;-63
2023/05/08 11:48:32;;;;;;;19.10;17.20;;;23.60;99.90;;;;;;5077690;28;20423;-63
2023/05/08 11:50:59;;;;;;;20.15;17.73;;;23.50;99.90;;;;;;5076793;28;20044;-63
2023/05/08 11:53:25;;;;;;;20.08;17.98;;;23.60;99.90;;;;;;5095879;28;20091;-63
2023/05/08 11:55:52;;;;;;;21.10;17.70;;;23.50;99.90;;;;;;5095526;28;20051;-62
2023/05/08 11:58:19;;;;;;;22.70;20.25;;;23.50;99.90;;;;;;5095207;28;20535;-63
2023/05/08 12:00:48;;;;;;;20.90;18.60;;;23.50;99.90;;;;;;5076588;28;20494;-63
2023/05/08 12:03:18;;;;;;;22.85;18.83;;;23.40;99.90;;;;;;5095474;28;20063;-62
2023/05/08 12:05:45;;;;;;;22.67;19.35;;;23.40;99.90;;;;;;5095336;28;20374;-63
2023/05/08 12:08:13;;;;;;;23.90;19.45;;;23.40;99.90;;;;;;5077234;28;20040;-63
2023/05/08 12:10:51;;;;;;;20.45;18.35;;;23.30;99.90;;;;;;5094567;28;20051;-63
2023/05/08 12:13:19;;;;;;;19.92;17.83;;;23.30;99.90;;;;;;5094774;28;20460;-62
2023/05/08 12:15:46;;;;;;;20.67;17.60;;;23.50;99.90;;;;;;5095090;28;20059;-63
2023/05/08 12:18:13;;;;;;;20.20;18.02;;;23.50;99.90;;;;;;5094518;28;20052;-64
2023/05/08 12:20:40;;;;;;;20.55;18.45;;;23.40;99.90;;;;;;5076290;28;20426;-62
2023/05/08 12:23:08;;;;;;;20.45;18.27;;;23.50;99.90;;;;;;5095118;28;20059;-64
2023/05/08 12:25:37;;;;;;;22.15;18.50;;;23.50;99.90;;;;;;5095026;28;20052;-61
2023/05/08 12:28:10;;;;;;;21.75;19.15;;;23.50;99.90;;;;;;5110625;28;20051;-62
2023/05/08 12:30:37;;;;;;;21.23;19.08;;;23.50;99.90;;;;;;5114509;28;20084;-63
2023/05/08 12:33:03;;;;;;;20.92;18.70;;;23.50;99.90;;;;;;5115422;28;20058;-61
2023/05/08 12:35:31;;;;;;;20.52;17.98;;;23.50;99.90;;;;;;5114914;28;20044;-62
2023/05/08 12:38:02;;;;;;;20.70;18.50;;;23.50;99.90;;;;;;5115165;28;20051;-63
2023/05/08 12:40:30;;;;;;;;;;;23.50;99.90;;;;;;5115087;28;20048;-63
2023/05/08 12:42:59;;;;;;;20.95;18.38;;;23.50;99.90;;;;;;5115288;28;19972;-62